»·PEaware :: N8665R KSAN-KSNA

N8665R :: KSAN-KSNA

FLIGHT INFORMATION

Flight Status: Arrived
Operator: Privately registered:
United States
More flights under this callsign
Pilot: John H. (10732)
Aircraft: PIPER PA-24 COMMANCHE
(PA24)
More flights by this aircraft type
Origin: KSAN San Diego Intl-Lindbergh
United States
Destination: KSNA John Wayne-Orange Co
United States
More flights between these airports :: More routes between these airports
Route: +OCN V23 SLI
File this flight plan on PilotEdge
Remarks: TEC route SANP3
Altitude:
(Current/Filed)
6,000ft
Speed:
(Current/Filed)
155kts
Departed: 28-May-19 02:15 PM
Arrived: 28-May-19 02:46 PM
Distance/Time
Traveled:
66nm/0:30
Distance/Time
To Go:
Arrived

Flight Plot

Page will automatically refresh every two minutes.


Map Options




Map Legend


Flown Route
Filed Route
Departure Airport
Arrival Airport
Navaid (VOR, NDB)
Fix

Horizontal Profiles

Position Reports

Time Latitude Longitude Heading Altitude Ground
Speed
28-May-19 13:55 32.733117 -117.179142 52 18ft 0kts
28-May-19 13:56 32.733117 -117.179142 52 18ft 0kts
28-May-19 13:57 32.733119 -117.179139 52 18ft 0kts
28-May-19 13:58 32.733122 -117.179134 52 18ft 0kts
28-May-19 13:59 32.733124 -117.179130 52 18ft 0kts
28-May-19 14:00 32.733127 -117.179127 52 18ft 0kts
28-May-19 14:01 32.733129 -117.179123 52 18ft 0kts
28-May-19 14:02 32.733130 -117.179122 52 18ft 0kts
28-May-19 14:04 32.733130 -117.179120 52 18ft 0kts
28-May-19 14:05 32.733131 -117.179119 52 18ft 0kts
28-May-19 14:06 32.733132 -117.179118 52 18ft 0kts
28-May-19 14:07 32.733132 -117.179117 52 18ft 0kts
28-May-19 14:08 32.733133 -117.179116 52 18ft 0kts
28-May-19 14:09 32.733134 -117.179115 52 18ft 0kts
28-May-19 14:10 32.733134 -117.179114 52 18ft 0kts
28-May-19 14:11 32.732864 -117.179013 182 18ft 7kts
28-May-19 14:12 32.731115 -117.175473 134 18ft 17kts
28-May-19 14:13 32.730809 -117.175292 200 18ft 0kts
28-May-19 14:14 32.730809 -117.175292 200 18ft 0kts
28-May-19 14:15 32.736020 -117.190326 317 785ft 101kts
28-May-19 14:16 32.763422 -117.207437 326 1875ft 120kts
28-May-19 14:17 32.797527 -117.228744 325 2110ft 153kts
28-May-19 14:18 32.835805 -117.245550 339 2760ft 142kts
28-May-19 14:19 32.873829 -117.251836 340 3633ft 132kts
28-May-19 14:20 32.906401 -117.266849 335 4638ft 118kts
28-May-19 14:21 32.937940 -117.281068 338 5489ft 124kts
28-May-19 14:21 32.965910 -117.294364 337 6025ft 141kts
28-May-19 14:23 33.013236 -117.314998 339 5962ft 159kts
28-May-19 14:24 33.054635 -117.334079 337 5960ft 159kts
28-May-19 14:24 33.089421 -117.349534 338 5957ft 159kts
28-May-19 14:26 33.137903 -117.371405 336 5957ft 159kts
28-May-19 14:27 33.179484 -117.389947 339 5956ft 160kts
28-May-19 14:27 33.214165 -117.405666 337 5957ft 159kts
28-May-19 14:28 33.255131 -117.426293 327 5949ft 159kts
28-May-19 14:29 33.285447 -117.464361 305 5948ft 158kts
28-May-19 14:30 33.313925 -117.504520 317 5949ft 159kts
28-May-19 14:31 33.346174 -117.540731 314 5948ft 159kts
28-May-19 14:32 33.377781 -117.577557 315 5950ft 159kts
28-May-19 14:33 33.409353 -117.614600 315 5945ft 159kts
28-May-19 14:34 33.440847 -117.651293 315 5944ft 158kts
28-May-19 14:35 33.472328 -117.688285 314 5946ft 158kts
28-May-19 14:36 33.505079 -117.727049 315 5328ft 173kts
28-May-19 14:37 33.539092 -117.766294 314 4710ft 154kts
28-May-19 14:38 33.573269 -117.805102 327 3789ft 169kts
28-May-19 14:39 33.611941 -117.829427 332 3990ft 151kts
28-May-19 14:40 33.652822 -117.853490 332 3295ft 166kts
28-May-19 14:41 33.694170 -117.877679 332 2512ft 161kts
28-May-19 14:42 33.722066 -117.867073 99 2213ft 103kts
28-May-19 14:43 33.699973 -117.852347 208 1439ft 103kts
28-May-19 14:44 33.678167 -117.867249 215 59ft 49kts
28-May-19 14:45 33.675972 -117.870027 284 59ft 15kts
28-May-19 14:46 33.675187 -117.871620 247 59ft 4kts
28-May-19 14:47 33.675124 -117.871684 231 59ft 0kts
28-May-19 14:48 33.675124 -117.871684 231 59ft 0kts

Navigation Log

Ident Type
Flight plan parsing failed, navigation log unavailable